Time;durP1;ratioP1;P1;durP2;ratioP2;P2;SDS_P1;SDS_P2;PMS_P1;PMS_P2;Temp;Humidity;BMP_temperature;BMP_pressure;BME280_temperature;BME280_humidity;BME280_pressure;Samples;Min_cycle;Max_cycle;Signal;HPM_P1;HPM_P2
2022/09/10 00:00:57;;;;;;;4.28;3.17;;;13.90;99.90;;;;;;5000289;28;20034;-51
2022/09/10 00:03:23;;;;;;;4.00;2.63;;;13.90;99.90;;;;;;4996946;28;20027;-50
2022/09/10 00:05:49;;;;;;;3.47;2.92;;;13.90;99.90;;;;;;4998931;28;20053;-54
2022/09/10 00:08:16;;;;;;;3.38;3.05;;;13.90;99.90;;;;;;4998492;28;20022;-51
2022/09/10 00:10:44;;;;;;;3.83;3.20;;;13.90;99.90;;;;;;4997388;28;20451;-52
2022/09/10 00:13:11;;;;;;;3.67;3.38;;;13.90;99.90;;;;;;4998464;28;20084;-51
2022/09/10 00:15:48;;;;;;;2.97;2.65;;;13.90;99.90;;;;;;4998628;28;20022;-50
2022/09/10 00:18:16;;;;;;;4.10;3.45;;;13.90;99.90;;;;;;4998751;28;20053;-49
2022/09/10 00:20:43;;;;;;;4.68;3.40;;;13.90;99.90;;;;;;4998647;28;20372;-49
2022/09/10 00:23:10;;;;;;;4.30;3.38;;;13.90;99.90;;;;;;5005966;28;20050;-50
2022/09/10 00:25:37;;;;;;;5.75;3.30;;;13.90;99.90;;;;;;4998133;28;20120;-49
2022/09/10 00:28:03;;;;;;;4.40;3.15;;;13.90;99.90;;;;;;4999070;28;20025;-50
2022/09/10 00:30:29;;;;;;;3.10;2.90;;;13.90;99.90;;;;;;5000473;28;20022;-49
2022/09/10 00:32:54;;;;;;;3.35;3.05;;;13.90;99.90;;;;;;5007950;28;20025;-49
2022/09/10 00:35:20;;;;;;;3.30;3.00;;;13.90;99.90;;;;;;5001557;28;20030;-51
2022/09/10 00:37:46;;;;;;;3.58;3.28;;;13.90;99.90;;;;;;5002013;28;20390;-52
2022/09/10 00:40:13;;;;;;;4.85;3.80;;;13.80;99.90;;;;;;5004712;28;20030;-51
2022/09/10 00:42:43;;;;;;;3.97;3.58;;;13.80;99.90;;;;;;5000056;28;20018;-49
2022/09/10 00:45:18;;;;;;;3.85;3.53;;;13.80;99.90;;;;;;5004367;28;20034;-53
2022/09/10 00:47:45;;;;;;;5.90;3.50;;;13.70;99.90;;;;;;4998871;28;20041;-49
2022/09/10 00:50:34;;;;;;;3.83;3.38;;;13.70;99.90;;;;;;5004770;28;20022;-49
2022/09/10 00:53:05;;;;;;;3.78;3.25;;;13.70;99.90;;;;;;5004919;28;20019;-49
2022/09/10 00:55:33;;;;;;;3.38;3.05;;;13.70;99.90;;;;;;5005313;28;20014;-51
2022/09/10 00:58:01;;;;;;;3.30;2.95;;;13.70;99.90;;;;;;5003032;28;20053;-50
2022/09/10 01:00:26;;;;;;;3.30;2.95;;;13.70;99.90;;;;;;4998377;28;20394;-51
2022/09/10 01:02:54;;;;;;;3.53;3.22;;;13.70;99.90;;;;;;5001889;28;20040;-50
2022/09/10 01:05:20;;;;;;;3.78;3.40;;;13.70;99.90;;;;;;4997649;28;20028;-50
2022/09/10 01:07:47;;;;;;;3.38;3.08;;;13.70;99.90;;;;;;5004972;28;20057;-50
2022/09/10 01:10:19;;;;;;;3.75;3.45;;;13.70;99.90;;;;;;4995766;28;20108;-49
2022/09/10 01:13:23;;;;;;;6.53;3.50;;;13.80;99.90;;;;;;5004464;28;20017;-51
2022/09/10 01:16:13;;;;;;;5.10;3.88;;;13.80;99.90;;;;;;4995039;28;20048;-50
2022/09/10 01:19:01;;;;;;;4.10;3.70;;;13.80;99.90;;;;;;5001626;28;20085;-48
2022/09/10 01:21:54;;;;;;;4.15;3.28;;;13.90;99.90;;;;;;5001175;28;20018;-49
2022/09/10 01:24:23;;;;;;;4.20;3.45;;;13.80;99.90;;;;;;4998242;28;20027;-50
2022/09/10 01:27:05;;;;;;;4.03;3.72;;;13.90;99.90;;;;;;4996841;28;20077;-49
2022/09/10 01:29:47;;;;;;;4.20;2.95;;;13.90;99.90;;;;;;5004802;28;20026;-49
2022/09/10 01:32:22;;;;;;;4.40;3.50;;;13.90;99.90;;;;;;5000929;28;20398;-49
2022/09/10 01:35:08;;;;;;;3.83;3.33;;;13.90;99.90;;;;;;5001202;28;20517;-50
2022/09/10 01:37:37;;;;;;;4.18;3.78;;;13.90;99.90;;;;;;5000924;28;20018;-53
2022/09/10 01:40:04;;;;;;;5.18;3.75;;;13.90;99.90;;;;;;5002430;28;20026;-50
2022/09/10 01:42:30;;;;;;;5.47;3.40;;;13.90;99.90;;;;;;5000269;28;20029;-49
2022/09/10 01:44:56;;;;;;;5.88;4.30;;;13.90;99.90;;;;;;5001894;28;20037;-50
2022/09/10 01:48:06;;;;;;;5.78;3.65;;;13.90;99.90;;;;;;5000653;28;20038;-48
2022/09/10 01:50:51;;;;;;;3.55;3.25;;;13.90;99.90;;;;;;4987108;28;20048;-48
2022/09/10 01:53:38;;;;;;;3.83;3.35;;;13.90;99.90;;;;;;4996214;28;20382;-53
2022/09/10 01:56:34;;;;;;;3.85;3.42;;;13.80;99.90;;;;;;5007521;28;20117;-50
2022/09/10 01:59:11;;;;;;;3.00;2.80;;;13.80;99.90;;;;;;5001013;28;20033;-49
2022/09/10 02:01:44;;;;;;;3.75;3.45;;;13.80;99.90;;;;;;5000346;28;20022;-53
2022/09/10 02:04:13;;;;;;;3.47;3.17;;;13.80;99.90;;;;;;5001681;28;20027;-49
2022/09/10 02:06:43;;;;;;;3.67;3.30;;;13.80;99.90;;;;;;5000639;28;20033;-51
2022/09/10 02:09:09;;;;;;;4.40;3.17;;;13.90;99.90;;;;;;5000598;28;20529;-53
2022/09/10 02:11:52;;;;;;;4.57;4.07;;;13.90;99.90;;;;;;5007069;28;20030;-49
2022/09/10 02:14:20;;;;;;;3.63;3.28;;;13.90;99.90;;;;;;5001190;28;20101;-49
2022/09/10 02:16:56;;;;;;;4.85;3.80;;;13.90;99.90;;;;;;4997773;28;20487;-50
2022/09/10 02:19:22;;;;;;;3.40;3.03;;;13.90;99.90;;;;;;5001052;28;20144;-49
2022/09/10 02:21:48;;;;;;;3.65;3.35;;;13.90;99.90;;;;;;4996127;28;20030;-51
2022/09/10 02:24:13;;;;;;;6.03;3.50;;;13.90;99.90;;;;;;5008508;28;20033;-51
2022/09/10 02:26:42;;;;;;;4.50;3.13;;;13.80;99.90;;;;;;5009000;28;20029;-49
2022/09/10 02:29:10;;;;;;;3.90;2.88;;;13.90;99.90;;;;;;4998038;28;20487;-50
2022/09/10 02:31:36;;;;;;;4.95;3.50;;;13.80;99.90;;;;;;4999252;28;20061;-50
2022/09/10 02:34:02;;;;;;;3.78;3.40;;;13.90;99.90;;;;;;5002682;28;20068;-51
2022/09/10 02:36:28;;;;;;;3.38;3.08;;;13.80;99.90;;;;;;5000023;28;20014;-51
2022/09/10 02:39:02;;;;;;;2.92;2.72;;;13.90;99.90;;;;;;5000557;28;20022;-50
2022/09/10 02:41:30;;;;;;;4.30;3.55;;;13.90;99.90;;;;;;4999825;28;20076;-53
2022/09/10 02:43:56;;;;;;;3.70;3.40;;;13.80;99.90;;;;;;5000700;28;20529;-54
2022/09/10 02:46:21;;;;;;;4.00;3.70;;;13.80;99.90;;;;;;4998628;28;20061;-49
2022/09/10 02:48:47;;;;;;;4.28;2.95;;;13.90;99.90;;;;;;4999747;28;20034;-49
2022/09/10 02:51:13;;;;;;;3.55;2.80;;;13.90;99.90;;;;;;5001306;28;20026;-50
2022/09/10 02:53:38;;;;;;;3.50;3.20;;;13.90;99.90;;;;;;4998243;28;20120;-52
2022/09/10 02:56:06;;;;;;;3.40;3.00;;;13.90;99.90;;;;;;5001554;28;20030;-49
2022/09/10 02:58:32;;;;;;;5.07;3.55;;;13.90;99.90;;;;;;5005734;28;20026;-49
2022/09/10 03:01:17;;;;;;;5.03;3.42;;;13.90;99.90;;;;;;5010955;28;20033;-49
2022/09/10 03:03:47;;;;;;;3.95;3.65;;;14.00;99.90;;;;;;5009264;28;20014;-50
2022/09/10 03:06:13;;;;;;;4.63;3.58;;;14.00;99.90;;;;;;5010471;28;20101;-50
2022/09/10 03:08:38;;;;;;;5.60;3.78;;;13.90;99.90;;;;;;5010862;28;20096;-54
2022/09/10 03:11:05;;;;;;;3.53;2.70;;;13.90;99.90;;;;;;5010402;28;20512;-51
2022/09/10 03:13:31;;;;;;;3.88;3.05;;;13.90;99.90;;;;;;5010696;28;20064;-52
2022/09/10 03:15:57;;;;;;;3.45;3.15;;;13.90;99.90;;;;;;5010656;28;20038;-50
2022/09/10 03:18:24;;;;;;;3.08;2.85;;;13.90;99.90;;;;;;5009307;28;20076;-51
2022/09/10 03:20:50;;;;;;;5.15;3.22;;;13.90;99.90;;;;;;5010426;28;20029;-50
2022/09/10 03:23:16;;;;;;;3.42;2.90;;;13.90;99.90;;;;;;5009993;28;20041;-52
2022/09/10 03:25:42;;;;;;;3.30;3.00;;;13.90;99.90;;;;;;5010361;28;20057;-50
2022/09/10 03:28:09;;;;;;;3.90;3.05;;;13.90;99.90;;;;;;5009895;28;20498;-50
2022/09/10 03:30:35;;;;;;;3.85;2.83;;;13.90;99.90;;;;;;5010112;28;20104;-49
2022/09/10 03:33:01;;;;;;;5.30;3.63;;;13.90;99.90;;;;;;5009735;28;20520;-50
2022/09/10 03:35:27;;;;;;;5.95;3.42;;;13.90;99.90;;;;;;5010138;28;20026;-49
2022/09/10 03:37:52;;;;;;;3.00;2.80;;;13.90;99.90;;;;;;5010109;28;20096;-49
2022/09/10 03:40:18;;;;;;;3.70;2.83;;;13.80;99.90;;;;;;5010164;28;20022;-50
2022/09/10 03:42:44;;;;;;;3.53;3.22;;;13.80;99.90;;;;;;5009780;28;20539;-50
2022/09/10 03:45:10;;;;;;;3.25;2.95;;;13.80;99.90;;;;;;5010007;28;20460;-51
2022/09/10 03:47:37;;;;;;;4.22;2.95;;;13.80;99.90;;;;;;5010277;28;20394;-51
2022/09/10 03:50:04;;;;;;;3.08;2.60;;;13.80;99.90;;;;;;5010431;28;20091;-49
2022/09/10 03:52:30;;;;;;;3.90;3.20;;;13.80;99.90;;;;;;5003902;28;20033;-51
2022/09/10 03:54:55;;;;;;;3.55;3.17;;;13.80;99.90;;;;;;5009967;28;20491;-49
2022/09/10 03:57:22;;;;;;;3.42;3.13;;;13.80;99.90;;;;;;5009802;28;20041;-50
2022/09/10 03:59:48;;;;;;;5.00;3.17;;;13.80;99.90;;;;;;5009953;28;20026;-51
2022/09/10 04:02:15;;;;;;;3.50;3.20;;;13.80;99.90;;;;;;5005673;28;20018;-50
2022/09/10 04:04:41;;;;;;;3.20;2.90;;;13.80;99.90;;;;;;5008383;28;20108;-50
2022/09/10 04:07:09;;;;;;;3.75;3.20;;;13.80;99.90;;;;;;5009425;28;20033;-50
2022/09/10 04:09:34;;;;;;;4.25;3.20;;;13.80;99.90;;;;;;5009873;28;20563;-52
2022/09/10 04:12:01;;;;;;;5.38;3.08;;;13.80;99.90;;;;;;5009391;28;20029;-51
2022/09/10 04:14:28;;;;;;;3.75;3.20;;;13.80;99.90;;;;;;5009694;28;20022;-51
2022/09/10 04:16:54;;;;;;;3.17;2.97;;;13.80;99.90;;;;;;5009735;28;20029;-50
2022/09/10 04:19:20;;;;;;;3.17;2.88;;;13.80;99.90;;;;;;5009744;28;20093;-50
2022/09/10 04:21:46;;;;;;;4.60;2.88;;;13.80;99.90;;;;;;5009691;28;20113;-50
2022/09/10 04:24:12;;;;;;;3.72;3.10;;;13.80;99.90;;;;;;5009785;28;20028;-56
2022/09/10 04:26:38;;;;;;;3.22;3.00;;;13.80;99.90;;;;;;5009424;28;20033;-53
2022/09/10 04:29:03;;;;;;;3.47;3.17;;;13.80;99.90;;;;;;5009745;28;20029;-53
2022/09/10 04:31:29;;;;;;;3.53;3.15;;;13.80;99.90;;;;;;5009053;28;20406;-51
2022/09/10 04:33:54;;;;;;;3.67;3.38;;;13.80;99.90;;;;;;5008460;28;20560;-51
2022/09/10 04:36:20;;;;;;;3.85;3.05;;;13.80;99.90;;;;;;5009456;28;20429;-52
2022/09/10 04:38:46;;;;;;;3.42;3.13;;;13.80;99.90;;;;;;5009712;28;20022;-50
2022/09/10 04:41:14;;;;;;;4.28;3.88;;;13.80;99.90;;;;;;5009003;28;20099;-53
2022/09/10 04:43:39;;;;;;;3.28;2.97;;;13.80;99.90;;;;;;5004843;28;20018;-51
2022/09/10 04:46:05;;;;;;;5.47;3.40;;;13.70;99.90;;;;;;5009342;28;20033;-50
2022/09/10 04:48:32;;;;;;;3.45;2.80;;;13.70;99.90;;;;;;5009465;28;20026;-51
2022/09/10 04:50:58;;;;;;;3.05;2.75;;;13.70;99.90;;;;;;5009311;28;20022;-51
2022/09/10 04:53:26;;;;;;;5.30;3.03;;;13.70;99.90;;;;;;5009090;28;20121;-50
2022/09/10 04:55:53;;;;;;;4.10;3.70;;;13.70;99.90;;;;;;5009664;28;20010;-51
2022/09/10 04:58:18;;;;;;;3.95;3.65;;;13.70;99.90;;;;;;5009685;28;20033;-50
2022/09/10 05:00:44;;;;;;;3.15;2.85;;;13.70;99.90;;;;;;5009801;28;20390;-53
2022/09/10 05:03:12;;;;;;;3.60;3.30;;;13.70;99.90;;;;;;5009141;28;20030;-49
2022/09/10 05:05:38;;;;;;;4.57;3.38;;;13.70;99.90;;;;;;5008985;28;20026;-48
2022/09/10 05:08:04;;;;;;;3.58;3.28;;;13.70;99.90;;;;;;5009416;28;20048;-49
2022/09/10 05:10:30;;;;;;;3.95;2.80;;;13.60;99.90;;;;;;5009599;28;20478;-49
2022/09/10 05:12:56;;;;;;;3.85;3.35;;;13.60;99.90;;;;;;5008857;28;20022;-50
2022/09/10 05:15:21;;;;;;;4.55;3.08;;;13.60;99.90;;;;;;5012097;28;20097;-49
2022/09/10 05:17:48;;;;;;;3.30;3.00;;;13.60;99.90;;;;;;5012982;28;20014;-50
2022/09/10 05:20:14;;;;;;;2.95;2.65;;;13.60;99.90;;;;;;5012939;28;20018;-51
2022/09/10 05:22:41;;;;;;;3.70;3.30;;;13.60;99.90;;;;;;5012505;28;20026;-49
2022/09/10 05:25:07;;;;;;;4.07;3.00;;;13.60;99.90;;;;;;5012825;28;20518;-52
2022/09/10 05:27:33;;;;;;;3.72;3.33;;;13.60;99.90;;;;;;5012388;28;20033;-51
2022/09/10 05:29:58;;;;;;;4.38;3.28;;;13.60;99.90;;;;;;5012398;28;20029;-50
2022/09/10 05:32:24;;;;;;;3.90;3.50;;;13.70;99.90;;;;;;5011033;28;20030;-50
2022/09/10 05:34:49;;;;;;;4.05;3.72;;;13.60;99.90;;;;;;5012748;28;20140;-53
2022/09/10 05:37:15;;;;;;;5.60;3.10;;;13.60;99.90;;;;;;5012686;28;20061;-50
2022/09/10 05:39:41;;;;;;;4.07;3.70;;;13.60;99.90;;;;;;5012647;28;20029;-50
2022/09/10 05:42:07;;;;;;;3.50;3.20;;;13.60;99.90;;;;;;5010718;28;20040;-49
2022/09/10 05:44:33;;;;;;;3.90;3.10;;;13.60;99.90;;;;;;5012333;28;20066;-50
2022/09/10 05:46:58;;;;;;;4.13;3.72;;;13.60;99.90;;;;;;5012131;28;20029;-50
2022/09/10 05:49:25;;;;;;;4.13;3.08;;;13.60;99.90;;;;;;5010918;28;20025;-50
2022/09/10 05:51:50;;;;;;;3.55;3.25;;;13.60;99.90;;;;;;5011727;28;20029;-50
2022/09/10 05:54:16;;;;;;;4.20;3.47;;;13.60;99.90;;;;;;5010968;28;20445;-50
2022/09/10 05:56:42;;;;;;;5.22;3.78;;;13.70;99.90;;;;;;5012134;28;20029;-50
2022/09/10 05:59:08;;;;;;;5.28;3.42;;;13.70;99.90;;;;;;5012012;28;20113;-52
2022/09/10 06:01:34;;;;;;;4.97;3.78;;;13.70;99.90;;;;;;5011716;28;20076;-54
2022/09/10 06:03:59;;;;;;;4.22;3.60;;;13.70;99.90;;;;;;5011804;28;20037;-54
2022/09/10 06:06:27;;;;;;;3.75;3.45;;;13.70;99.90;;;;;;5011469;28;20036;-49
2022/09/10 06:08:53;;;;;;;4.18;3.78;;;13.70;99.90;;;;;;5012411;28;20033;-54
2022/09/10 06:11:19;;;;;;;4.32;3.55;;;13.80;99.90;;;;;;5004042;28;20407;-52
2022/09/10 06:13:44;;;;;;;3.83;3.30;;;13.80;99.90;;;;;;5012061;28;20022;-53
2022/09/10 06:16:11;;;;;;;3.78;3.47;;;13.80;99.90;;;;;;5011611;28;20054;-50
2022/09/10 06:18:37;;;;;;;3.63;3.30;;;13.80;99.90;;;;;;5011907;28;20482;-52
2022/09/10 06:21:10;;;;;;;3.78;3.47;;;13.80;99.90;;;;;;5011454;28;20076;-52
2022/09/10 06:23:36;;;;;;;4.18;3.85;;;13.80;99.90;;;;;;5011617;28;20021;-49
2022/09/10 06:26:08;;;;;;;3.83;3.53;;;13.80;99.90;;;;;;5009637;28;20525;-59
2022/09/10 06:28:34;;;;;;;4.30;3.90;;;13.80;99.90;;;;;;5011689;28;20558;-50
2022/09/10 06:31:03;;;;;;;5.03;4.43;;;13.80;99.90;;;;;;5011353;28;20113;-51
2022/09/10 06:33:29;;;;;;;6.13;3.78;;;13.90;99.90;;;;;;5006452;28;20044;-50
2022/09/10 06:35:56;;;;;;;4.68;4.00;;;13.90;99.90;;;;;;5016282;23;20098;-48
2022/09/10 06:38:23;;;;;;;4.20;3.65;;;13.90;99.90;;;;;;4970657;28;20023;-49
2022/09/10 06:40:53;;;;;;;3.88;3.47;;;14.00;99.90;;;;;;4971047;28;20145;-50
2022/09/10 06:43:22;;;;;;;4.90;4.35;;;14.00;99.90;;;;;;4968433;28;20022;-53
2022/09/10 06:45:49;;;;;;;4.78;4.35;;;14.00;99.90;;;;;;4980202;28;20375;-50
2022/09/10 06:48:17;;;;;;;4.10;3.80;;;14.00;99.90;;;;;;4987796;28;20583;-51
2022/09/10 06:51:03;;;;;;;3.92;3.63;;;14.00;99.90;;;;;;4991732;28;20082;-52
2022/09/10 06:53:29;;;;;;;3.80;3.50;;;14.00;99.90;;;;;;4988014;28;20034;-50
2022/09/10 06:55:55;;;;;;;4.47;4.07;;;14.00;99.90;;;;;;4991280;28;20038;-49
2022/09/10 06:58:23;;;;;;;4.22;3.83;;;14.10;99.90;;;;;;4991243;28;20022;-48
2022/09/10 07:00:50;;;;;;;5.13;4.35;;;14.10;99.90;;;;;;4991368;28;20029;-48
2022/09/10 07:03:18;;;;;;;4.20;3.80;;;14.20;99.90;;;;;;4983543;28;20022;-48
2022/09/10 07:05:47;;;;;;;4.40;4.00;;;14.20;99.90;;;;;;4988686;28;20019;-49
2022/09/10 07:08:15;;;;;;;5.30;4.70;;;14.20;99.90;;;;;;4989704;28;20018;-48
2022/09/10 07:10:43;;;;;;;5.70;4.10;;;14.30;99.90;;;;;;4990854;28;20423;-48
2022/09/10 07:13:09;;;;;;;5.00;4.60;;;14.40;99.90;;;;;;4990593;28;20026;-50
2022/09/10 07:15:35;;;;;;;4.35;4.00;;;14.40;99.90;;;;;;4990482;28;20037;-49
2022/09/10 07:18:01;;;;;;;5.25;4.20;;;14.40;99.90;;;;;;4989511;28;20391;-51
2022/09/10 07:20:28;;;;;;;4.85;4.45;;;14.50;99.90;;;;;;4991048;28;20333;-48
2022/09/10 07:22:58;;;;;;;6.10;4.30;;;14.60;99.90;;;;;;4990291;28;20421;-47
2022/09/10 07:25:25;;;;;;;5.18;4.68;;;14.70;99.90;;;;;;4990365;28;20506;-50
2022/09/10 07:27:52;;;;;;;4.90;4.50;;;14.70;99.90;;;;;;4988711;28;20026;-50
2022/09/10 07:30:18;;;;;;;5.60;4.65;;;14.70;99.90;;;;;;4990530;28;20113;-53
2022/09/10 07:32:45;;;;;;;5.05;4.63;;;14.80;99.90;;;;;;4990058;28;20434;-48
2022/09/10 07:35:11;;;;;;;5.68;5.10;;;14.90;99.90;;;;;;4988992;28;20019;-49
2022/09/10 07:37:38;;;;;;;6.15;5.00;;;15.00;99.90;;;;;;4990311;28;20033;-49
2022/09/10 07:40:04;;;;;;;6.10;4.80;;;15.10;99.90;;;;;;4990348;28;20091;-49
2022/09/10 07:42:29;;;;;;;5.20;4.70;;;15.10;99.90;;;;;;4990066;28;20482;-48
2022/09/10 07:44:55;;;;;;;5.68;5.10;;;15.20;99.90;;;;;;4988952;28;20058;-49
2022/09/10 07:47:20;;;;;;;5.30;4.80;;;15.20;99.90;;;;;;4990511;28;20523;-48
2022/09/10 07:49:46;;;;;;;5.50;4.72;;;15.30;99.90;;;;;;4990437;28;20030;-47
2022/09/10 07:52:12;;;;;;;5.35;4.85;;;15.40;99.90;;;;;;4989818;28;20380;-47
2022/09/10 07:54:37;;;;;;;5.50;5.00;;;15.40;99.90;;;;;;4990762;28;20119;-49
2022/09/10 07:57:04;;;;;;;5.32;4.93;;;15.50;99.90;;;;;;4990368;28;20038;-50
2022/09/10 07:59:30;;;;;;;5.40;4.90;;;15.60;99.90;;;;;;4990395;28;20015;-48
2022/09/10 08:01:56;;;;;;;6.43;5.80;;;15.60;99.90;;;;;;4989629;28;20105;-48
2022/09/10 08:04:22;;;;;;;8.27;5.55;;;15.70;99.90;;;;;;4990382;28;20096;-47
2022/09/10 08:06:48;;;;;;;5.72;5.22;;;15.70;99.90;;;;;;4987496;28;20026;-48
2022/09/10 08:09:14;;;;;;;7.63;6.07;;;15.80;99.90;;;;;;4990062;28;20170;-49
2022/09/10 08:11:39;;;;;;;7.03;6.30;;;15.90;99.90;;;;;;4989968;28;20030;-48
2022/09/10 08:14:05;;;;;;;7.75;7.05;;;16.00;99.90;;;;;;4989879;28;20054;-48
2022/09/10 08:16:32;;;;;;;7.53;6.47;;;16.00;99.90;;;;;;4990016;28;20117;-47
2022/09/10 08:18:59;;;;;;;9.00;6.68;;;16.10;99.90;;;;;;4990272;28;20023;-47
2022/09/10 08:21:25;;;;;;;8.32;6.97;;;16.20;99.90;;;;;;4988337;28;20014;-49
2022/09/10 08:23:53;;;;;;;7.45;6.78;;;16.20;99.90;;;;;;4988662;28;20053;-47
2022/09/10 08:26:22;;;;;;;6.68;6.07;;;16.30;99.90;;;;;;4988237;28;20018;-47
2022/09/10 08:28:48;;;;;;;9.80;7.95;;;16.30;99.90;;;;;;4990156;28;20526;-47
2022/09/10 08:31:15;;;;;;;9.75;8.85;;;16.40;99.90;;;;;;4984568;28;20034;-48
2022/09/10 08:33:40;;;;;;;7.97;7.28;;;16.50;99.90;;;;;;4990014;28;20025;-47
2022/09/10 08:36:12;;;;;;;11.18;10.15;;;16.50;99.90;;;;;;4987974;28;20030;-52
2022/09/10 08:38:39;;;;;;;10.23;9.23;;;16.50;99.90;;;;;;4990230;28;20379;-47
2022/09/10 08:41:22;;;;;;;9.25;8.35;;;16.60;99.90;;;;;;4989683;28;20062;-48
2022/09/10 08:43:51;;;;;;;10.48;9.57;;;16.60;99.90;;;;;;4986257;28;20092;-48
2022/09/10 08:46:25;;;;;;;11.05;9.90;;;16.60;99.90;;;;;;4983721;28;20703;-47
2022/09/10 08:49:03;;;;;;;11.43;10.05;;;16.60;99.90;;;;;;4985432;28;20030;-48
2022/09/10 08:51:45;;;;;;;9.18;8.10;;;16.60;99.90;;;;;;4992633;28;20081;-51
2022/09/10 08:54:19;;;;;;;9.57;8.13;;;16.70;99.90;;;;;;4993303;28;20015;-48
2022/09/10 08:56:47;;;;;;;9.43;8.52;;;16.70;99.90;;;;;;4993234;28;20026;-48
2022/09/10 08:59:32;;;;;;;11.90;10.70;;;16.70;99.90;;;;;;4993250;28;20037;-47
2022/09/10 09:02:02;;;;;;;10.45;9.45;;;16.70;99.90;;;;;;4993166;28;20379;-50
2022/09/10 09:04:35;;;;;;;11.55;10.45;;;16.70;99.90;;;;;;4993290;28;20105;-51
2022/09/10 09:07:08;;;;;;;10.35;9.45;;;16.80;99.90;;;;;;4988923;28;20505;-47
2022/09/10 09:09:33;;;;;;;9.23;8.48;;;16.90;99.90;;;;;;4992878;28;20038;-47
2022/09/10 09:12:17;;;;;;;10.38;9.25;;;17.00;99.90;;;;;;4992616;28;20037;-48
2022/09/10 09:14:52;;;;;;;11.15;9.80;;;17.10;99.90;;;;;;4987333;28;20014;-47
2022/09/10 09:17:30;;;;;;;8.90;8.10;;;17.20;99.90;;;;;;4986353;28;20034;-48
2022/09/10 09:20:16;;;;;;;11.05;9.95;;;17.20;99.90;;;;;;4988868;28;20038;-47
2022/09/10 09:22:51;;;;;;;13.32;11.55;;;17.20;99.90;;;;;;4992455;28;20030;-49
2022/09/10 09:25:50;;;;;;;10.15;9.15;;;17.20;99.90;;;;;;4983526;28;20022;-50
2022/09/10 09:28:34;;;;;;;9.80;9.00;;;17.20;99.90;;;;;;4964721;28;20035;-47
2022/09/10 09:31:06;;;;;;;11.38;10.38;;;17.20;99.90;;;;;;4992619;28;20360;-47
2022/09/10 09:33:32;;;;;;;11.98;10.80;;;17.20;99.90;;;;;;4969203;28;20506;-49
2022/09/10 09:36:01;;;;;;;12.10;11.00;;;17.20;99.90;;;;;;4990835;28;20045;-47
2022/09/10 09:38:33;;;;;;;10.98;10.05;;;17.20;99.90;;;;;;4992551;28;20438;-48
2022/09/10 09:41:18;;;;;;;10.15;9.20;;;17.20;99.90;;;;;;4991471;28;20052;-52
2022/09/10 09:44:15;;;;;;;10.97;9.87;;;17.20;99.90;;;;;;4971081;28;20101;-49
2022/09/10 09:46:41;;;;;;;11.68;10.52;;;17.20;99.90;;;;;;4989269;28;20257;-47
2022/09/10 09:49:15;;;;;;;10.05;9.15;;;17.20;99.90;;;;;;4992246;28;20176;-47
2022/09/10 09:51:44;;;;;;;9.27;8.43;;;17.30;99.90;;;;;;4991787;28;20045;-48
2022/09/10 09:54:17;;;;;;;8.23;7.38;;;17.30;99.90;;;;;;4992122;28;20108;-50
2022/09/10 09:56:48;;;;;;;8.52;7.72;;;17.30;99.90;;;;;;4992024;28;20036;-47
2022/09/10 09:59:28;;;;;;;8.95;8.20;;;17.30;99.90;;;;;;4991456;28;20042;-49
2022/09/10 10:02:18;;;;;;;7.55;6.95;;;17.30;99.90;;;;;;4991649;28;20451;-47
2022/09/10 10:04:55;;;;;;;9.13;8.32;;;17.40;99.90;;;;;;4987474;28;20030;-50
2022/09/10 10:07:32;;;;;;;9.13;8.30;;;17.30;99.90;;;;;;4983713;28;20114;-49
2022/09/10 10:10:03;;;;;;;10.07;9.18;;;17.40;99.90;;;;;;4991914;28;20116;-51
2022/09/10 10:12:30;;;;;;;10.90;9.80;;;17.30;99.90;;;;;;4991828;28;20026;-48
2022/09/10 10:14:57;;;;;;;7.35;6.75;;;17.30;99.90;;;;;;4990643;28;20368;-52
2022/09/10 10:17:26;;;;;;;7.47;6.82;;;17.30;99.90;;;;;;4992041;28;20018;-47
2022/09/10 10:20:07;;;;;;;7.82;7.00;;;17.30;99.90;;;;;;4988655;28;20030;-49
2022/09/10 10:22:34;;;;;;;8.05;7.35;;;17.40;99.90;;;;;;4989868;28;20022;-48
2022/09/10 10:25:01;;;;;;;9.60;8.77;;;17.50;99.90;;;;;;4990245;28;20030;-49
2022/09/10 10:27:40;;;;;;;11.75;10.60;;;17.40;99.90;;;;;;4991272;28;20026;-48
2022/09/10 10:30:15;;;;;;;9.38;8.57;;;17.50;99.90;;;;;;4990385;28;20050;-48
2022/09/10 10:32:52;;;;;;;8.77;8.15;;;17.50;99.90;;;;;;4991293;28;20019;-48
2022/09/10 10:35:27;;;;;;;8.13;7.38;;;17.50;99.90;;;;;;4982260;28;20028;-50
2022/09/10 10:38:21;;;;;;;6.72;6.22;;;17.50;99.90;;;;;;4989860;28;20029;-49
2022/09/10 10:40:50;;;;;;;9.80;9.00;;;17.50;99.90;;;;;;4986512;28;20034;-48
2022/09/10 10:43:32;;;;;;;9.35;8.57;;;17.50;99.90;;;;;;4987989;28;20028;-47
2022/09/10 10:46:33;;;;;;;9.73;8.93;;;17.50;99.90;;;;;;4990883;28;20410;-48
2022/09/10 10:49:46;;;;;;;11.10;10.02;;;17.60;99.90;;;;;;4968305;28;20034;-48
2022/09/10 10:52:24;;;;;;;10.52;9.60;;;17.60;99.90;;;;;;4954426;28;20043;-47
2022/09/10 10:55:11;;;;;;;8.50;7.80;;;17.60;99.90;;;;;;4990981;28;20014;-50
2022/09/10 10:57:42;;;;;;;10.30;9.27;;;17.60;99.90;;;;;;4989705;28;20443;-47
2022/09/10 11:00:13;;;;;;;8.98;8.18;;;17.70;99.90;;;;;;4989380;28;20026;-48
2022/09/10 11:02:51;;;;;;;7.75;7.25;;;17.70;99.90;;;;;;4990761;28;20210;-48
2022/09/10 11:05:25;;;;;;;7.78;7.07;;;17.70;99.90;;;;;;4986680;28;20030;-48
2022/09/10 11:07:53;;;;;;;7.57;6.97;;;17.70;99.90;;;;;;4988332;28;20630;-48
2022/09/10 11:10:31;;;;;;;8.43;7.72;;;17.80;99.90;;;;;;4990769;28;20029;-48
2022/09/10 11:13:18;;;;;;;10.38;9.43;;;17.90;99.90;;;;;;4989826;28;20113;-49
2022/09/10 11:16:03;;;;;;;9.68;8.88;;;18.00;99.90;;;;;;4990469;28;20058;-48
2022/09/10 11:18:50;;;;;;;9.70;8.88;;;18.00;99.90;;;;;;4990709;28;20061;-48
2022/09/10 11:21:28;;;;;;;10.95;9.85;;;18.00;99.90;;;;;;4988235;28;20025;-49
2022/09/10 11:24:03;;;;;;;10.23;9.32;;;18.00;99.90;;;;;;4990599;28;20037;-48
2022/09/10 11:26:57;;;;;;;9.10;8.40;;;18.10;99.90;;;;;;4989011;28;20398;-48
2022/09/10 11:29:24;;;;;;;9.27;8.48;;;18.10;99.90;;;;;;4984079;28;20029;-49
2022/09/10 11:31:58;;;;;;;9.05;8.15;;;18.10;99.90;;;;;;4990075;28;20026;-48
2022/09/10 11:34:57;;;;;;;8.88;8.07;;;18.10;99.90;;;;;;4990238;28;20015;-52
2022/09/10 11:37:48;;;;;;;9.27;8.57;;;18.20;99.90;;;;;;4983511;28;20087;-49
2022/09/10 11:40:51;;;;;;;9.63;8.70;;;18.20;99.90;;;;;;4990175;28;20018;-49
2022/09/10 11:43:41;;;;;;;10.57;9.57;;;18.30;99.90;;;;;;4984125;28;20036;-48
2022/09/10 11:46:25;;;;;;;8.98;8.18;;;18.40;99.90;;;;;;4990054;28;20105;-49
2022/09/10 11:49:02;;;;;;;7.93;7.13;;;18.40;99.90;;;;;;4987097;28;20019;-51
2022/09/10 11:51:38;;;;;;;8.55;7.85;;;18.40;99.90;;;;;;4989846;28;20025;-48
2022/09/10 11:54:09;;;;;;;10.07;8.90;;;18.50;99.90;;;;;;4988985;28;20027;-49
2022/09/10 11:56:41;;;;;;;10.38;9.35;;;18.50;99.90;;;;;;4989044;28;20387;-50
2022/09/10 11:59:17;;;;;;;10.40;9.40;;;18.60;99.90;;;;;;4990288;28;20033;-51
2022/09/10 12:02:15;;;;;;;10.10;9.20;;;18.70;99.90;;;;;;4988504;28;20113;-48
2022/09/10 12:04:49;;;;;;;9.32;8.52;;;18.70;99.90;;;;;;4985507;28;20046;-51
2022/09/10 12:07:24;;;;;;;9.25;8.40;;;18.70;99.90;;;;;;4985407;28;20018;-47
2022/09/10 12:10:10;;;;;;;;;;;18.80;99.90;;;;;;4990319;28;20538;-49
2022/09/10 12:12:48;;;;;;;8.10;7.25;;;18.80;99.90;;;;;;4988009;28;20381;-49
2022/09/10 12:15:19;;;;;;;8.35;7.55;;;18.90;99.90;;;;;;4981916;28;20109;-48
2022/09/10 12:18:07;;;;;;;7.78;7.03;;;19.00;99.90;;;;;;4989806;28;20075;-48
2022/09/10 12:20:41;;;;;;;8.05;7.25;;;19.00;99.90;;;;;;4972897;28;20027;-49
2022/09/10 12:23:13;;;;;;;8.00;7.25;;;19.10;99.90;;;;;;4989057;28;20046;-51
2022/09/10 12:25:40;;;;;;;7.93;6.85;;;19.20;99.90;;;;;;4991878;28;20028;-51
2022/09/10 12:28:41;;;;;;;7.25;6.45;;;19.20;99.90;;;;;;4992496;28;20697;-49
2022/09/10 12:31:07;;;;;;;6.45;5.95;;;19.30;99.90;;;;;;4993597;28;20405;-48
2022/09/10 12:33:42;;;;;;;7.43;6.63;;;19.30;99.90;;;;;;4993878;28;20026;-50
2022/09/10 12:36:08;;;;;;;7.93;5.55;;;19.40;99.90;;;;;;5016991;23;20029;-52
2022/09/10 12:39:11;;;;;;;6.95;6.30;;;19.40;99.90;;;;;;5007981;28;20056;-54
2022/09/10 12:41:36;;;;;;;6.60;5.85;;;19.40;99.90;;;;;;4998788;28;20464;-51
2022/09/10 12:44:33;;;;;;;12.75;4.68;;;19.50;99.90;;;;;;5003451;28;20050;-51
2022/09/10 12:47:14;;;;;;;;;;;19.50;99.90;;;;;;5004867;28;20019;-53
2022/09/10 12:49:56;;;;;;;5.45;4.20;;;19.60;99.90;;;;;;5003476;28;19905;-49
2022/09/10 12:52:34;;;;;;;4.03;3.63;;;19.60;99.90;;;;;;5004482;28;20026;-50
2022/09/10 12:55:20;;;;;;;5.50;4.10;;;19.60;99.90;;;;;;5004520;28;20065;-49
2022/09/10 12:57:54;;;;;;;6.05;4.65;;;19.70;99.90;;;;;;5004757;28;20025;-50
2022/09/10 13:00:21;;;;;;;4.43;4.03;;;19.80;99.90;;;;;;4998871;28;20025;-50
2022/09/10 13:02:59;;;;;;;3.92;3.72;;;19.90;99.90;;;;;;5007450;28;20030;-51
2022/09/10 13:05:43;;;;;;;4.30;3.85;;;19.90;99.90;;;;;;4998514;28;20030;-52
2022/09/10 13:08:13;;;;;;;4.53;4.15;;;19.90;99.90;;;;;;5003643;28;20133;-49